Amesbury, Massachusetts
Current Conditions -  °F | °C
As of 8:54 PM on Thursday 18 Dec 2014 (Local Time) from KLWM Reporting Station
Overcast Overcast  
Wind Chill: 30°   Ceiling: 3400
Heat Index: 37°   Visibility: 10mi
Dew Point: 28°   Wind: 10mph
Humidity: 70%   Direction: 300°WNW
Pressure: 29.85"   Gusts: 20mph
Location:  42.86°N, 70.93°W
Report Text: KLWM 190154Z 30009G17KT 10SM OVC034 03/M02 A2985 RMK AO2 SLP111 T00281022
Loading
Personal Weather Stations






























Interactive Weather Map New forecast layout! Learn more

10-Day Weather Forecast

Advertisements
Track Severe Weather on mobile